AVA26 SKBO-EDDF
Flight info
| Callsign | AVA26 |
|---|---|
| Flight time | N/A |
| Altitude | 37000 |
| Route | OSUSU4R GIKPU UQ120 DIBAM/N0495F330 DCT SELAN UG444 BOTES DCT LAMER/M083F330 DCT SHEIL/M083F350 DCT RNGRS DCT 38N060W 44N050W 48N040W 50N030W 51N020W DCT DINIM DCT ELSOX DCT LESLU/N0474F350 DCT OXLOW DCT KONAN UL607 SPI T180 NIVNU T847 IMCOM IMCOM1A |
| Aircraft | A339/H-SADE1E2E3GHIJ3J5M1P2RWXY/LB2D1 |
Departure
| Time | N/A |
|---|---|
| Airport | El Dorado International Airport (SKBO) |
Arrival
| Time | 2026-05-06 13:59 |
|---|---|
| Airport | Frankfurt Main Airport (EDDF) |
| Time | Latitude | Longitude | Altitude | Speed | Heading |
|---|---|---|---|---|---|
| 2026-05-06 13:27 | 50.68227 | 4.84487 | 36875 ft | 474 kts | 118° |
| 2026-05-06 13:27 | 50.65786 | 4.93781 | 36860 ft | 476 kts | 111° |
| 2026-05-06 13:28 | 50.63683 | 5.03687 | 36863 ft | 477 kts | 110° |
| 2026-05-06 13:28 | 50.61642 | 5.13637 | 36880 ft | 477 kts | 110° |
| 2026-05-06 13:29 | 50.59592 | 5.23573 | 36884 ft | 478 kts | 110° |
| 2026-05-06 13:29 | 50.57536 | 5.33463 | 36886 ft | 478 kts | 110° |
| 2026-05-06 13:30 | 50.55463 | 5.43380 | 36887 ft | 478 kts | 110° |
| 2026-05-06 13:30 | 50.53434 | 5.53043 | 36884 ft | 478 kts | 110° |
| 2026-05-06 13:31 | 50.51340 | 5.62965 | 36875 ft | 478 kts | 110° |
| 2026-05-06 13:31 | 50.49469 | 5.72733 | 36863 ft | 479 kts | 108° |
| 2026-05-06 13:32 | 50.47605 | 5.82977 | 36851 ft | 479 kts | 108° |
| 2026-05-06 13:32 | 50.45734 | 5.93008 | 36814 ft | 479 kts | 109° |
| 2026-05-06 13:32 | 50.44789 | 5.98015 | 36543 ft | 478 kts | 109° |
| 2026-05-06 13:33 | 50.43838 | 6.03029 | 35949 ft | 479 kts | 109° |
| 2026-05-06 13:33 | 50.42886 | 6.08035 | 35150 ft | 480 kts | 109° |
| 2026-05-06 13:33 | 50.41939 | 6.13002 | 34218 ft | 482 kts | 109° |
| 2026-05-06 13:33 | 50.40962 | 6.18104 | 33003 ft | 485 kts | 108° |
| 2026-05-06 13:34 | 50.40003 | 6.23103 | 31850 ft | 483 kts | 108° |
| 2026-05-06 13:34 | 50.39038 | 6.28123 | 30763 ft | 480 kts | 108° |
| 2026-05-06 13:34 | 50.38079 | 6.33094 | 30029 ft | 471 kts | 107° |
| 2026-05-06 13:34 | 50.37146 | 6.37932 | 29531 ft | 460 kts | 107° |
| 2026-05-06 13:35 | 50.36423 | 6.42509 | 28998 ft | 454 kts | 101° |
| 2026-05-06 13:35 | 50.36020 | 6.47385 | 28403 ft | 449 kts | 95° |
| 2026-05-06 13:35 | 50.35756 | 6.52231 | 27819 ft | 445 kts | 96° |
| 2026-05-06 13:35 | 50.35469 | 6.57029 | 27236 ft | 441 kts | 96° |
| 2026-05-06 13:36 | 50.35169 | 6.61787 | 26661 ft | 437 kts | 97° |
| 2026-05-06 13:36 | 50.34870 | 6.66435 | 26104 ft | 434 kts | 97° |
| 2026-05-06 13:36 | 50.34565 | 6.71135 | 25533 ft | 431 kts | 97° |
| 2026-05-06 13:36 | 50.34262 | 6.75787 | 24961 ft | 428 kts | 97° |
| 2026-05-06 13:37 | 50.33968 | 6.80399 | 24410 ft | 425 kts | 97° |
| 2026-05-06 13:37 | 50.33489 | 6.84940 | 23828 ft | 422 kts | 105° |
| 2026-05-06 13:37 | 50.32649 | 6.89308 | 23227 ft | 419 kts | 112° |
| 2026-05-06 13:37 | 50.31506 | 6.93367 | 22679 ft | 414 kts | 118° |
| 2026-05-06 13:38 | 50.30264 | 6.97409 | 22152 ft | 412 kts | 117° |
| 2026-05-06 13:38 | 50.29050 | 7.01454 | 21623 ft | 408 kts | 117° |
| 2026-05-06 13:38 | 50.27850 | 7.05488 | 21065 ft | 413 kts | 117° |
| 2026-05-06 13:38 | 50.26631 | 7.09585 | 20529 ft | 417 kts | 117° |
| 2026-05-06 13:39 | 50.25409 | 7.13682 | 19983 ft | 413 kts | 117° |
| 2026-05-06 13:39 | 50.24202 | 7.17721 | 19450 ft | 407 kts | 117° |
| 2026-05-06 13:39 | 50.23009 | 7.21699 | 18917 ft | 401 kts | 117° |
| 2026-05-06 13:39 | 50.21829 | 7.25624 | 18398 ft | 399 kts | 117° |
| 2026-05-06 13:40 | 50.20652 | 7.29528 | 17822 ft | 395 kts | 117° |
| 2026-05-06 13:40 | 50.19552 | 7.33233 | 17348 ft | 390 kts | 115° |
| 2026-05-06 13:40 | 50.18590 | 7.37205 | 16825 ft | 391 kts | 112° |
| 2026-05-06 13:40 | 50.17652 | 7.41186 | 16324 ft | 389 kts | 112° |
| 2026-05-06 13:41 | 50.16720 | 7.45116 | 15820 ft | 384 kts | 112° |
| 2026-05-06 13:41 | 50.15792 | 7.49015 | 15304 ft | 382 kts | 112° |
| 2026-05-06 13:41 | 50.14866 | 7.52884 | 14823 ft | 380 kts | 112° |
| 2026-05-06 13:41 | 50.13945 | 7.56725 | 14315 ft | 378 kts | 112° |
| 2026-05-06 13:42 | 50.13026 | 7.60547 | 13829 ft | 375 kts | 112° |
| 2026-05-06 13:42 | 50.12115 | 7.64335 | 13297 ft | 373 kts | 112° |
| 2026-05-06 13:42 | 50.11125 | 7.68051 | 12815 ft | 368 kts | 118° |
| 2026-05-06 13:42 | 50.09945 | 7.71565 | 12242 ft | 366 kts | 114° |
| 2026-05-06 13:43 | 50.09379 | 7.75390 | 11832 ft | 363 kts | 94° |
| 2026-05-06 13:43 | 50.09623 | 7.79322 | 11591 ft | 368 kts | 79° |
| 2026-05-06 13:43 | 50.10246 | 7.83190 | 11333 ft | 368 kts | 76° |
| 2026-05-06 13:43 | 50.10889 | 7.87034 | 11086 ft | 366 kts | 77° |
| 2026-05-06 13:44 | 50.11454 | 7.90900 | 10860 ft | 364 kts | 79° |
| 2026-05-06 13:44 | 50.11919 | 7.94597 | 10790 ft | 364 kts | 81° |
| 2026-05-06 13:44 | 50.12360 | 7.98475 | 10783 ft | 364 kts | 81° |
| 2026-05-06 13:44 | 50.12781 | 8.02370 | 10779 ft | 364 kts | 82° |
| 2026-05-06 13:45 | 50.13166 | 8.05994 | 10793 ft | 364 kts | 82° |
| 2026-05-06 13:45 | 50.13977 | 8.13778 | 10518 ft | 358 kts | 82° |
| 2026-05-06 13:45 | 50.14359 | 8.17525 | 10318 ft | 342 kts | 82° |
| 2026-05-06 13:46 | 50.14720 | 8.21039 | 10143 ft | 325 kts | 82° |
| 2026-05-06 13:46 | 50.15100 | 8.24426 | 9992 ft | 309 kts | 81° |
| 2026-05-06 13:46 | 50.15467 | 8.27674 | 9658 ft | 300 kts | 82° |
| 2026-05-06 13:46 | 50.15814 | 8.30859 | 9121 ft | 298 kts | 82° |
| 2026-05-06 13:47 | 50.16149 | 8.34029 | 8609 ft | 296 kts | 82° |
| 2026-05-06 13:47 | 50.16478 | 8.37194 | 8117 ft | 294 kts | 82° |
| 2026-05-06 13:47 | 50.16799 | 8.40302 | 7807 ft | 286 kts | 83° |
| 2026-05-06 13:47 | 50.17116 | 8.43376 | 7680 ft | 293 kts | 83° |
| 2026-05-06 13:48 | 50.17436 | 8.46520 | 7547 ft | 292 kts | 83° |
| 2026-05-06 13:48 | 50.17754 | 8.49644 | 7411 ft | 291 kts | 83° |
| 2026-05-06 13:48 | 50.18075 | 8.52761 | 7287 ft | 291 kts | 83° |
| 2026-05-06 13:48 | 50.18393 | 8.55867 | 7161 ft | 290 kts | 83° |
| 2026-05-06 13:49 | 50.18709 | 8.58967 | 7038 ft | 289 kts | 83° |
| 2026-05-06 13:49 | 50.19023 | 8.62071 | 6914 ft | 288 kts | 83° |
| 2026-05-06 13:49 | 50.19336 | 8.65161 | 6793 ft | 288 kts | 83° |
| 2026-05-06 13:49 | 50.19648 | 8.68237 | 6773 ft | 288 kts | 83° |
| 2026-05-06 13:50 | 50.19959 | 8.71331 | 6766 ft | 288 kts | 83° |
| 2026-05-06 13:50 | 50.20267 | 8.74414 | 6767 ft | 288 kts | 83° |
| 2026-05-06 13:50 | 50.20574 | 8.77484 | 6605 ft | 285 kts | 83° |
| 2026-05-06 13:50 | 50.20879 | 8.80533 | 6242 ft | 283 kts | 83° |
| 2026-05-06 13:51 | 50.21182 | 8.83561 | 5702 ft | 281 kts | 83° |
| 2026-05-06 13:51 | 50.21477 | 8.86529 | 5098 ft | 281 kts | 82° |
| 2026-05-06 13:51 | 50.21849 | 8.88910 | 4684 ft | 279 kts | 72° |
| 2026-05-06 13:51 | 50.22363 | 8.91804 | 4165 ft | 273 kts | 87° |
| 2026-05-06 13:52 | 50.22120 | 8.94614 | 4014 ft | 252 kts | 115° |
| 2026-05-06 13:52 | 50.21177 | 8.96712 | 3991 ft | 226 kts | 143° |
| 2026-05-06 13:52 | 50.19756 | 8.97769 | 3982 ft | 229 kts | 172° |
| 2026-05-06 13:52 | 50.18202 | 8.97874 | 3982 ft | 220 kts | 193° |
| 2026-05-06 13:53 | 50.16845 | 8.96836 | 4005 ft | 221 kts | 222° |
| 2026-05-06 13:53 | 50.15712 | 8.95181 | 3997 ft | 223 kts | 224° |
| 2026-05-06 13:53 | 50.14598 | 8.93552 | 3992 ft | 214 kts | 224° |
| 2026-05-06 13:53 | 50.13563 | 8.92026 | 3992 ft | 198 kts | 224° |
| 2026-05-06 13:54 | 50.12566 | 8.90555 | 3994 ft | 198 kts | 224° |
| 2026-05-06 13:54 | 50.11682 | 8.89202 | 3989 ft | 203 kts | 230° |
| 2026-05-06 13:54 | 50.10918 | 8.87374 | 3993 ft | 201 kts | 243° |
| 2026-05-06 13:54 | 50.10374 | 8.85385 | 3942 ft | 198 kts | 249° |
| 2026-05-06 13:55 | 50.09911 | 8.83410 | 3736 ft | 190 kts | 249° |
| 2026-05-06 13:55 | 50.09449 | 8.81498 | 3481 ft | 186 kts | 249° |
| 2026-05-06 13:55 | 50.09004 | 8.79625 | 3223 ft | 184 kts | 249° |
| 2026-05-06 13:55 | 50.08562 | 8.77771 | 2978 ft | 181 kts | 249° |
| 2026-05-06 13:56 | 50.08130 | 8.75961 | 2727 ft | 176 kts | 249° |
| 2026-05-06 13:56 | 50.07708 | 8.74205 | 2505 ft | 170 kts | 250° |
| 2026-05-06 13:56 | 50.07381 | 8.72487 | 2174 ft | 164 kts | 258° |
| 2026-05-06 13:56 | 50.07149 | 8.70792 | 1887 ft | 156 kts | 257° |
| 2026-05-06 13:57 | 50.06896 | 8.69173 | 1717 ft | 155 kts | 255° |
| 2026-05-06 13:57 | 50.06582 | 8.67538 | 1463 ft | 160 kts | 252° |
| 2026-05-06 13:57 | 50.06222 | 8.65941 | 1239 ft | 152 kts | 249° |
| 2026-05-06 13:57 | 50.05856 | 8.64387 | 1075 ft | 155 kts | 250° |
| 2026-05-06 13:58 | 50.05482 | 8.62807 | 906 ft | 158 kts | 249° |
| 2026-05-06 13:58 | 50.05113 | 8.61220 | 804 ft | 158 kts | 247° |
| 2026-05-06 13:58 | 50.04731 | 8.59620 | 561 ft | 156 kts | 248° |
| 2026-05-06 13:58 | 50.04357 | 8.58070 | 377 ft | 149 kts | 249° |
| 2026-05-06 13:59 | 50.04089 | 8.56927 | 370 ft | 69 kts | 250° |
| 2026-05-06 13:59 | 50.03993 | 8.56488 | 362 ft | 27 kts | 259° |
| 2026-05-06 13:59 | 50.04008 | 8.56225 | 363 ft | 6 kts | 279° |
| 2026-05-06 13:59 | 50.04020 | 8.56166 | 360 ft | 7 kts | 297° |
| 2026-05-06 14:00 | 50.04044 | 8.56149 | 360 ft | 0 kts | 340° |
| 2026-05-06 14:01 | 50.04052 | 8.56146 | 361 ft | 6 kts | 343° |
| 2026-05-06 14:01 | 50.04120 | 8.56245 | 365 ft | 19 kts | 67° |
| 2026-05-06 14:02 | 50.04161 | 8.56424 | 364 ft | 17 kts | 70° |
| 2026-05-06 14:02 | 50.04204 | 8.56600 | 363 ft | 17 kts | 69° |
| 2026-05-06 14:02 | 50.04248 | 8.56761 | 368 ft | 15 kts | 54° |
| 2026-05-06 14:02 | 50.04339 | 8.56824 | 370 ft | 14 kts | 12° |
| 2026-05-06 14:03 | 50.04440 | 8.56856 | 367 ft | 15 kts | 19° |
| 2026-05-06 14:03 | 50.04469 | 8.56960 | 370 ft | 7 kts | 122° |
| 2026-05-06 14:03 | 50.04435 | 8.56974 | 369 ft | 4 kts | 160° |
| 2026-05-06 14:03 | 50.04407 | 8.56990 | 368 ft | 4 kts | 160° |
| 2026-05-06 14:04 | 50.04390 | 8.56999 | 370 ft | 0 kts | 160° |